sensor_id;sensor_type;location;lat;lon;timestamp;temperature;humidity
76537;DHT22;65381;51.254;15.592;2024-01-11T00:00:45;24.20;29.20
76537;DHT22;65381;51.254;15.592;2024-01-11T00:03:32;24.20;29.20
76537;DHT22;65381;51.254;15.592;2024-01-11T00:06:01;24.20;29.30
76537;DHT22;65381;51.254;15.592;2024-01-11T00:08:28;24.20;29.20
76537;DHT22;65381;51.254;15.592;2024-01-11T00:10:57;24.20;29.20
76537;DHT22;65381;51.254;15.592;2024-01-11T00:13:24;24.20;29.10
76537;DHT22;65381;51.254;15.592;2024-01-11T00:15:53;24.20;29.10
76537;DHT22;65381;51.254;15.592;2024-01-11T00:18:21;24.20;29.10
76537;DHT22;65381;51.254;15.592;2024-01-11T00:20:49;24.10;29.00
76537;DHT22;65381;51.254;15.592;2024-01-11T00:23:16;24.10;29.00
76537;DHT22;65381;51.254;15.592;2024-01-11T00:25:45;24.10;29.00
76537;DHT22;65381;51.254;15.592;2024-01-11T00:28:12;24.10;28.90
76537;DHT22;65381;51.254;15.592;2024-01-11T00:30:40;24.10;28.90
76537;DHT22;65381;51.254;15.592;2024-01-11T00:33:08;24.10;28.90
76537;DHT22;65381;51.254;15.592;2024-01-11T00:35:37;24.10;28.80
76537;DHT22;65381;51.254;15.592;2024-01-11T00:38:05;24.00;28.80
76537;DHT22;65381;51.254;15.592;2024-01-11T00:40:33;24.00;28.70
76537;DHT22;65381;51.254;15.592;2024-01-11T00:43:00;24.00;28.70
76537;DHT22;65381;51.254;15.592;2024-01-11T00:45:32;24.00;28.70
76537;DHT22;65381;51.254;15.592;2024-01-11T00:48:17;24.00;28.60
76537;DHT22;65381;51.254;15.592;2024-01-11T00:50:45;24.00;28.60
76537;DHT22;65381;51.254;15.592;2024-01-11T00:53:12;24.00;28.60
76537;DHT22;65381;51.254;15.592;2024-01-11T00:55:42;24.00;28.60
76537;DHT22;65381;51.254;15.592;2024-01-11T00:58:10;24.00;28.60
76537;DHT22;65381;51.254;15.592;2024-01-11T01:00:38;24.00;28.50
76537;DHT22;65381;51.254;15.592;2024-01-11T01:03:06;24.00;28.40
76537;DHT22;65381;51.254;15.592;2024-01-11T01:05:34;24.00;28.50
76537;DHT22;65381;51.254;15.592;2024-01-11T01:08:02;24.00;28.40
76537;DHT22;65381;51.254;15.592;2024-01-11T01:10:31;24.00;28.40
76537;DHT22;65381;51.254;15.592;2024-01-11T01:12:58;24.00;28.40
76537;DHT22;65381;51.254;15.592;2024-01-11T01:15:26;24.00;28.30
76537;DHT22;65381;51.254;15.592;2024-01-11T01:17:54;24.00;28.30
76537;DHT22;65381;51.254;15.592;2024-01-11T01:20:22;24.00;28.30
76537;DHT22;65381;51.254;15.592;2024-01-11T01:22:50;24.00;28.30
76537;DHT22;65381;51.254;15.592;2024-01-11T01:25:18;23.90;28.20
76537;DHT22;65381;51.254;15.592;2024-01-11T01:27:46;23.90;28.20
76537;DHT22;65381;51.254;15.592;2024-01-11T01:30:14;23.90;28.20
76537;DHT22;65381;51.254;15.592;2024-01-11T01:32:42;23.90;28.10
76537;DHT22;65381;51.254;15.592;2024-01-11T01:35:10;23.90;28.10
76537;DHT22;65381;51.254;15.592;2024-01-11T01:37:38;23.90;28.10
76537;DHT22;65381;51.254;15.592;2024-01-11T01:40:07;23.90;28.00
76537;DHT22;65381;51.254;15.592;2024-01-11T01:42:35;23.90;28.00
76537;DHT22;65381;51.254;15.592;2024-01-11T01:45:03;23.90;28.00
76537;DHT22;65381;51.254;15.592;2024-01-11T01:47:31;23.90;27.90
76537;DHT22;65381;51.254;15.592;2024-01-11T01:50:00;23.90;27.90
76537;DHT22;65381;51.254;15.592;2024-01-11T01:52:27;23.90;27.90
76537;DHT22;65381;51.254;15.592;2024-01-11T01:54:57;23.90;27.90
76537;DHT22;65381;51.254;15.592;2024-01-11T01:57:26;23.90;27.80
76537;DHT22;65381;51.254;15.592;2024-01-11T01:59:54;23.90;27.90
76537;DHT22;65381;51.254;15.592;2024-01-11T02:02:22;23.90;27.80
76537;DHT22;65381;51.254;15.592;2024-01-11T02:04:50;23.90;27.80
76537;DHT22;65381;51.254;15.592;2024-01-11T02:07:19;23.90;27.80
76537;DHT22;65381;51.254;15.592;2024-01-11T02:09:47;23.90;27.80
76537;DHT22;65381;51.254;15.592;2024-01-11T02:12:15;23.90;27.80
76537;DHT22;65381;51.254;15.592;2024-01-11T02:14:44;23.90;27.70
76537;DHT22;65381;51.254;15.592;2024-01-11T02:17:12;23.90;27.70
76537;DHT22;65381;51.254;15.592;2024-01-11T02:19:40;23.90;27.70
76537;DHT22;65381;51.254;15.592;2024-01-11T02:22:36;23.80;27.70
76537;DHT22;65381;51.254;15.592;2024-01-11T02:25:06;23.90;27.70
76537;DHT22;65381;51.254;15.592;2024-01-11T02:27:49;23.80;27.80
76537;DHT22;65381;51.254;15.592;2024-01-11T02:30:18;23.80;27.80
76537;DHT22;65381;51.254;15.592;2024-01-11T02:32:47;23.80;27.70
76537;DHT22;65381;51.254;15.592;2024-01-11T02:35:17;23.80;27.60
76537;DHT22;65381;51.254;15.592;2024-01-11T02:37:46;23.80;27.60
76537;DHT22;65381;51.254;15.592;2024-01-11T02:40:15;23.80;27.60
76537;DHT22;65381;51.254;15.592;2024-01-11T02:42:43;23.80;27.60
76537;DHT22;65381;51.254;15.592;2024-01-11T02:45:11;23.80;27.50
76537;DHT22;65381;51.254;15.592;2024-01-11T02:47:42;23.80;27.50
76537;DHT22;65381;51.254;15.592;2024-01-11T02:50:10;23.80;27.50
76537;DHT22;65381;51.254;15.592;2024-01-11T02:52:41;23.80;27.50
76537;DHT22;65381;51.254;15.592;2024-01-11T02:55:09;23.80;27.50
76537;DHT22;65381;51.254;15.592;2024-01-11T02:57:36;23.80;27.50
76537;DHT22;65381;51.254;15.592;2024-01-11T03:00:05;23.80;27.50
76537;DHT22;65381;51.254;15.592;2024-01-11T03:02:33;23.80;27.40
76537;DHT22;65381;51.254;15.592;2024-01-11T03:05:02;23.80;27.40
76537;DHT22;65381;51.254;15.592;2024-01-11T03:07:29;23.80;27.40
76537;DHT22;65381;51.254;15.592;2024-01-11T03:09:58;23.80;27.30
76537;DHT22;65381;51.254;15.592;2024-01-11T03:12:25;23.70;27.30
76537;DHT22;65381;51.254;15.592;2024-01-11T03:14:54;23.80;27.30
76537;DHT22;65381;51.254;15.592;2024-01-11T03:17:21;23.80;27.30
76537;DHT22;65381;51.254;15.592;2024-01-11T03:19:49;23.80;27.30
76537;DHT22;65381;51.254;15.592;2024-01-11T03:22:17;23.80;27.30
76537;DHT22;65381;51.254;15.592;2024-01-11T03:24:45;23.80;27.30
76537;DHT22;65381;51.254;15.592;2024-01-11T03:27:13;23.80;27.30
76537;DHT22;65381;51.254;15.592;2024-01-11T03:29:41;23.80;27.20
76537;DHT22;65381;51.254;15.592;2024-01-11T03:32:09;23.80;27.20
76537;DHT22;65381;51.254;15.592;2024-01-11T03:34:40;23.80;27.20
76537;DHT22;65381;51.254;15.592;2024-01-11T03:37:08;23.80;27.20
76537;DHT22;65381;51.254;15.592;2024-01-11T03:39:36;23.80;27.20
76537;DHT22;65381;51.254;15.592;2024-01-11T03:42:04;23.80;27.20
76537;DHT22;65381;51.254;15.592;2024-01-11T03:44:33;23.80;27.20
76537;DHT22;65381;51.254;15.592;2024-01-11T03:47:00;23.80;27.10
76537;DHT22;65381;51.254;15.592;2024-01-11T03:49:28;23.80;27.20
76537;DHT22;65381;51.254;15.592;2024-01-11T03:51:56;23.80;27.10
76537;DHT22;65381;51.254;15.592;2024-01-11T03:54:24;23.80;27.10
76537;DHT22;65381;51.254;15.592;2024-01-11T03:56:52;23.80;27.10
76537;DHT22;65381;51.254;15.592;2024-01-11T03:59:20;23.80;27.10
76537;DHT22;65381;51.254;15.592;2024-01-11T04:01:48;23.80;27.10
76537;DHT22;65381;51.254;15.592;2024-01-11T04:04:16;23.80;27.10
76537;DHT22;65381;51.254;15.592;2024-01-11T04:06:44;23.80;27.00
76537;DHT22;65381;51.254;15.592;2024-01-11T04:09:12;23.80;27.00
76537;DHT22;65381;51.254;15.592;2024-01-11T04:11:40;23.80;27.00
76537;DHT22;65381;51.254;15.592;2024-01-11T04:14:08;23.80;27.00
76537;DHT22;65381;51.254;15.592;2024-01-11T04:16:40;23.80;27.00
76537;DHT22;65381;51.254;15.592;2024-01-11T04:19:09;23.80;26.90
76537;DHT22;65381;51.254;15.592;2024-01-11T04:21:37;23.80;27.00
76537;DHT22;65381;51.254;15.592;2024-01-11T04:24:07;23.80;26.90
76537;DHT22;65381;51.254;15.592;2024-01-11T04:26:35;23.80;26.90
76537;DHT22;65381;51.254;15.592;2024-01-11T04:29:03;23.80;26.90
76537;DHT22;65381;51.254;15.592;2024-01-11T04:31:31;23.80;26.90
76537;DHT22;65381;51.254;15.592;2024-01-11T04:33:59;23.80;26.90
76537;DHT22;65381;51.254;15.592;2024-01-11T04:36:27;23.80;26.90
76537;DHT22;65381;51.254;15.592;2024-01-11T04:38:55;23.80;26.90
76537;DHT22;65381;51.254;15.592;2024-01-11T04:41:22;23.80;26.90
76537;DHT22;65381;51.254;15.592;2024-01-11T04:43:51;23.80;26.80
76537;DHT22;65381;51.254;15.592;2024-01-11T04:46:20;23.80;26.80
76537;DHT22;65381;51.254;15.592;2024-01-11T04:48:49;23.90;26.70
76537;DHT22;65381;51.254;15.592;2024-01-11T04:51:18;23.80;26.80
76537;DHT22;65381;51.254;15.592;2024-01-11T04:53:46;23.90;26.80
76537;DHT22;65381;51.254;15.592;2024-01-11T04:56:15;23.90;26.80
76537;DHT22;65381;51.254;15.592;2024-01-11T04:58:44;23.90;26.80
76537;DHT22;65381;51.254;15.592;2024-01-11T05:01:13;23.90;26.70
76537;DHT22;65381;51.254;15.592;2024-01-11T05:03:42;23.90;26.70
76537;DHT22;65381;51.254;15.592;2024-01-11T05:06:17;23.90;26.70
76537;DHT22;65381;51.254;15.592;2024-01-11T05:08:46;23.90;26.70
76537;DHT22;65381;51.254;15.592;2024-01-11T05:11:19;23.90;26.70
76537;DHT22;65381;51.254;15.592;2024-01-11T05:13:48;23.90;26.70
76537;DHT22;65381;51.254;15.592;2024-01-11T05:16:21;23.90;26.70
76537;DHT22;65381;51.254;15.592;2024-01-11T05:18:55;23.90;26.70
76537;DHT22;65381;51.254;15.592;2024-01-11T05:21:23;23.90;26.70
76537;DHT22;65381;51.254;15.592;2024-01-11T05:23:51;23.90;26.70
76537;DHT22;65381;51.254;15.592;2024-01-11T05:26:20;23.90;26.70
76537;DHT22;65381;51.254;15.592;2024-01-11T05:28:48;23.90;26.70
76537;DHT22;65381;51.254;15.592;2024-01-11T05:31:16;23.90;26.70
76537;DHT22;65381;51.254;15.592;2024-01-11T05:33:45;23.90;26.70
76537;DHT22;65381;51.254;15.592;2024-01-11T05:36:15;23.90;26.70
76537;DHT22;65381;51.254;15.592;2024-01-11T05:38:44;23.90;26.70
76537;DHT22;65381;51.254;15.592;2024-01-11T05:41:13;23.90;26.70
76537;DHT22;65381;51.254;15.592;2024-01-11T05:43:42;23.90;26.70
76537;DHT22;65381;51.254;15.592;2024-01-11T05:46:10;23.90;26.80
76537;DHT22;65381;51.254;15.592;2024-01-11T05:48:38;23.90;26.90
76537;DHT22;65381;51.254;15.592;2024-01-11T05:51:06;24.00;27.00
76537;DHT22;65381;51.254;15.592;2024-01-11T05:53:35;24.00;27.00
76537;DHT22;65381;51.254;15.592;2024-01-11T05:56:10;24.00;27.10
76537;DHT22;65381;51.254;15.592;2024-01-11T05:58:39;24.00;27.20
76537;DHT22;65381;51.254;15.592;2024-01-11T06:01:07;24.00;27.30
76537;DHT22;65381;51.254;15.592;2024-01-11T06:03:36;24.00;27.40
76537;DHT22;65381;51.254;15.592;2024-01-11T06:06:05;24.00;27.50
76537;DHT22;65381;51.254;15.592;2024-01-11T06:08:33;24.00;27.60
76537;DHT22;65381;51.254;15.592;2024-01-11T06:11:01;24.00;27.60
76537;DHT22;65381;51.254;15.592;2024-01-11T06:13:29;24.00;27.70
76537;DHT22;65381;51.254;15.592;2024-01-11T06:15:57;24.00;27.70
76537;DHT22;65381;51.254;15.592;2024-01-11T06:18:25;24.00;27.70
76537;DHT22;65381;51.254;15.592;2024-01-11T06:20:53;24.00;27.70
76537;DHT22;65381;51.254;15.592;2024-01-11T06:23:21;24.00;27.70
76537;DHT22;65381;51.254;15.592;2024-01-11T06:25:49;23.90;27.90
76537;DHT22;65381;51.254;15.592;2024-01-11T06:28:17;23.70;28.10
76537;DHT22;65381;51.254;15.592;2024-01-11T06:30:44;23.60;28.20
76537;DHT22;65381;51.254;15.592;2024-01-11T06:33:12;23.60;28.30
76537;DHT22;65381;51.254;15.592;2024-01-11T06:35:40;23.50;28.30
76537;DHT22;65381;51.254;15.592;2024-01-11T06:38:08;23.50;28.30
76537;DHT22;65381;51.254;15.592;2024-01-11T06:40:36;23.40;28.40
76537;DHT22;65381;51.254;15.592;2024-01-11T06:43:05;23.40;28.40
76537;DHT22;65381;51.254;15.592;2024-01-11T06:45:32;23.40;28.50
76537;DHT22;65381;51.254;15.592;2024-01-11T06:48:00;23.40;28.50
76537;DHT22;65381;51.254;15.592;2024-01-11T06:50:28;23.40;28.60
76537;DHT22;65381;51.254;15.592;2024-01-11T06:52:57;23.40;28.60
76537;DHT22;65381;51.254;15.592;2024-01-11T06:55:24;23.40;28.60
76537;DHT22;65381;51.254;15.592;2024-01-11T06:57:52;23.50;28.60
76537;DHT22;65381;51.254;15.592;2024-01-11T07:00:20;23.50;28.60
76537;DHT22;65381;51.254;15.592;2024-01-11T07:02:49;23.50;28.50
76537;DHT22;65381;51.254;15.592;2024-01-11T07:05:17;23.50;28.60
76537;DHT22;65381;51.254;15.592;2024-01-11T07:07:45;23.50;28.60
76537;DHT22;65381;51.254;15.592;2024-01-11T07:10:13;23.50;28.60
76537;DHT22;65381;51.254;15.592;2024-01-11T07:12:41;23.50;28.60
76537;DHT22;65381;51.254;15.592;2024-01-11T07:15:10;23.50;28.60
76537;DHT22;65381;51.254;15.592;2024-01-11T07:17:39;23.60;28.60
76537;DHT22;65381;51.254;15.592;2024-01-11T07:20:07;23.60;28.60
76537;DHT22;65381;51.254;15.592;2024-01-11T07:22:36;23.60;28.60
76537;DHT22;65381;51.254;15.592;2024-01-11T07:25:08;23.60;28.60
76537;DHT22;65381;51.254;15.592;2024-01-11T07:27:36;23.60;28.50
76537;DHT22;65381;51.254;15.592;2024-01-11T07:30:04;23.60;28.50
76537;DHT22;65381;51.254;15.592;2024-01-11T07:32:34;23.60;28.50
76537;DHT22;65381;51.254;15.592;2024-01-11T07:35:02;23.60;28.50
76537;DHT22;65381;51.254;15.592;2024-01-11T07:37:34;23.60;28.50
76537;DHT22;65381;51.254;15.592;2024-01-11T07:40:03;23.60;28.50
76537;DHT22;65381;51.254;15.592;2024-01-11T07:42:31;23.60;28.40
76537;DHT22;65381;51.254;15.592;2024-01-11T07:44:59;23.60;28.40
76537;DHT22;65381;51.254;15.592;2024-01-11T07:47:27;23.60;28.40
76537;DHT22;65381;51.254;15.592;2024-01-11T07:49:55;23.70;28.40
76537;DHT22;65381;51.254;15.592;2024-01-11T07:52:23;23.70;28.30
76537;DHT22;65381;51.254;15.592;2024-01-11T07:54:51;23.70;28.30
76537;DHT22;65381;51.254;15.592;2024-01-11T07:57:19;23.70;28.30
76537;DHT22;65381;51.254;15.592;2024-01-11T07:59:47;23.70;28.30
76537;DHT22;65381;51.254;15.592;2024-01-11T08:02:15;23.80;28.30
76537;DHT22;65381;51.254;15.592;2024-01-11T08:04:43;23.80;28.30
76537;DHT22;65381;51.254;15.592;2024-01-11T08:07:13;23.80;28.20
76537;DHT22;65381;51.254;15.592;2024-01-11T08:09:41;23.80;28.20
76537;DHT22;65381;51.254;15.592;2024-01-11T08:12:16;23.80;28.20
76537;DHT22;65381;51.254;15.592;2024-01-11T08:14:44;23.80;28.10
76537;DHT22;65381;51.254;15.592;2024-01-11T08:17:14;23.80;28.20
76537;DHT22;65381;51.254;15.592;2024-01-11T08:19:43;23.80;28.10
76537;DHT22;65381;51.254;15.592;2024-01-11T08:22:11;23.80;28.10
76537;DHT22;65381;51.254;15.592;2024-01-11T08:24:39;23.80;28.10
76537;DHT22;65381;51.254;15.592;2024-01-11T08:27:07;23.80;28.10
76537;DHT22;65381;51.254;15.592;2024-01-11T08:29:34;23.80;28.20
76537;DHT22;65381;51.254;15.592;2024-01-11T08:32:03;23.90;28.20
76537;DHT22;65381;51.254;15.592;2024-01-11T08:34:50;23.90;28.20
76537;DHT22;65381;51.254;15.592;2024-01-11T08:37:18;23.90;28.30
76537;DHT22;65381;51.254;15.592;2024-01-11T08:39:46;23.90;28.30
76537;DHT22;65381;51.254;15.592;2024-01-11T08:42:14;23.90;28.30
76537;DHT22;65381;51.254;15.592;2024-01-11T08:44:43;23.90;28.30
76537;DHT22;65381;51.254;15.592;2024-01-11T08:47:11;23.90;28.40
76537;DHT22;65381;51.254;15.592;2024-01-11T08:49:39;23.90;28.40
76537;DHT22;65381;51.254;15.592;2024-01-11T08:52:07;23.90;28.50
76537;DHT22;65381;51.254;15.592;2024-01-11T08:54:35;23.90;28.50
76537;DHT22;65381;51.254;15.592;2024-01-11T08:57:03;23.90;28.60
76537;DHT22;65381;51.254;15.592;2024-01-11T08:59:32;23.90;28.60
76537;DHT22;65381;51.254;15.592;2024-01-11T09:02:00;23.90;28.60
76537;DHT22;65381;51.254;15.592;2024-01-11T09:04:41;23.90;28.60
76537;DHT22;65381;51.254;15.592;2024-01-11T09:07:09;23.90;28.60
76537;DHT22;65381;51.254;15.592;2024-01-11T09:09:37;23.90;28.70
76537;DHT22;65381;51.254;15.592;2024-01-11T09:12:17;23.90;28.70
76537;DHT22;65381;51.254;15.592;2024-01-11T09:14:45;23.90;28.70
76537;DHT22;65381;51.254;15.592;2024-01-11T09:17:13;23.90;28.70
76537;DHT22;65381;51.254;15.592;2024-01-11T09:19:41;23.90;28.70
76537;DHT22;65381;51.254;15.592;2024-01-11T09:22:09;23.90;28.80
76537;DHT22;65381;51.254;15.592;2024-01-11T09:24:37;23.90;28.80
76537;DHT22;65381;51.254;15.592;2024-01-11T09:27:06;24.00;28.80
76537;DHT22;65381;51.254;15.592;2024-01-11T09:29:34;24.00;28.90
76537;DHT22;65381;51.254;15.592;2024-01-11T09:32:02;24.00;28.90
76537;DHT22;65381;51.254;15.592;2024-01-11T09:34:30;23.90;28.90
76537;DHT22;65381;51.254;15.592;2024-01-11T09:36:59;24.00;28.90
76537;DHT22;65381;51.254;15.592;2024-01-11T09:39:27;24.00;28.90
76537;DHT22;65381;51.254;15.592;2024-01-11T09:42:08;24.00;28.90
76537;DHT22;65381;51.254;15.592;2024-01-11T09:44:41;24.00;28.80
76537;DHT22;65381;51.254;15.592;2024-01-11T09:47:10;24.00;28.80
76537;DHT22;65381;51.254;15.592;2024-01-11T09:49:44;24.00;28.80
76537;DHT22;65381;51.254;15.592;2024-01-11T09:52:15;24.00;28.80
76537;DHT22;65381;51.254;15.592;2024-01-11T09:54:44;24.00;28.70
76537;DHT22;65381;51.254;15.592;2024-01-11T09:57:16;24.00;28.70
76537;DHT22;65381;51.254;15.592;2024-01-11T09:59:44;24.00;28.70
76537;DHT22;65381;51.254;15.592;2024-01-11T10:02:13;24.00;28.70
76537;DHT22;65381;51.254;15.592;2024-01-11T10:04:42;24.10;28.70
76537;DHT22;65381;51.254;15.592;2024-01-11T10:07:11;24.10;28.70
76537;DHT22;65381;51.254;15.592;2024-01-11T10:09:38;24.10;28.60
76537;DHT22;65381;51.254;15.592;2024-01-11T10:12:07;24.10;28.60
76537;DHT22;65381;51.254;15.592;2024-01-11T10:14:35;24.10;28.60
76537;DHT22;65381;51.254;15.592;2024-01-11T10:17:03;24.20;28.60
76537;DHT22;65381;51.254;15.592;2024-01-11T10:19:32;24.20;28.60
76537;DHT22;65381;51.254;15.592;2024-01-11T10:22:01;24.20;28.60
76537;DHT22;65381;51.254;15.592;2024-01-11T10:24:28;24.20;28.60
76537;DHT22;65381;51.254;15.592;2024-01-11T10:26:57;24.20;28.70
76537;DHT22;65381;51.254;15.592;2024-01-11T10:29:30;24.20;28.70
76537;DHT22;65381;51.254;15.592;2024-01-11T10:31:59;24.20;28.70
76537;DHT22;65381;51.254;15.592;2024-01-11T10:34:27;24.20;28.90
76537;DHT22;65381;51.254;15.592;2024-01-11T10:36:55;24.20;29.00
76537;DHT22;65381;51.254;15.592;2024-01-11T10:39:25;24.20;29.00
76537;DHT22;65381;51.254;15.592;2024-01-11T10:42:06;24.20;29.10
76537;DHT22;65381;51.254;15.592;2024-01-11T10:44:35;24.20;29.10
76537;DHT22;65381;51.254;15.592;2024-01-11T10:47:08;24.20;29.20
76537;DHT22;65381;51.254;15.592;2024-01-11T10:49:39;24.20;29.50
76537;DHT22;65381;51.254;15.592;2024-01-11T10:52:12;24.20;29.70
76537;DHT22;65381;51.254;15.592;2024-01-11T10:54:40;24.20;29.70
76537;DHT22;65381;51.254;15.592;2024-01-11T10:57:09;24.20;29.80
76537;DHT22;65381;51.254;15.592;2024-01-11T10:59:38;24.20;30.00
76537;DHT22;65381;51.254;15.592;2024-01-11T11:02:11;24.20;30.00
76537;DHT22;65381;51.254;15.592;2024-01-11T11:04:42;24.20;30.20
76537;DHT22;65381;51.254;15.592;2024-01-11T11:07:11;24.20;30.30
76537;DHT22;65381;51.254;15.592;2024-01-11T11:09:41;24.20;30.40
76537;DHT22;65381;51.254;15.592;2024-01-11T11:12:12;24.20;30.70
76537;DHT22;65381;51.254;15.592;2024-01-11T11:14:41;24.20;30.70
76537;DHT22;65381;51.254;15.592;2024-01-11T11:17:12;24.20;30.70
76537;DHT22;65381;51.254;15.592;2024-01-11T11:19:42;24.20;30.70
76537;DHT22;65381;51.254;15.592;2024-01-11T11:22:13;24.20;30.70
76537;DHT22;65381;51.254;15.592;2024-01-11T11:24:43;24.20;30.60
76537;DHT22;65381;51.254;15.592;2024-01-11T11:27:14;24.20;30.60
76537;DHT22;65381;51.254;15.592;2024-01-11T11:29:47;24.20;30.60
76537;DHT22;65381;51.254;15.592;2024-01-11T11:32:16;24.20;30.50
76537;DHT22;65381;51.254;15.592;2024-01-11T11:34:44;24.20;30.60
76537;DHT22;65381;51.254;15.592;2024-01-11T11:37:23;24.20;30.50
76537;DHT22;65381;51.254;15.592;2024-01-11T11:39:51;24.20;30.50
76537;DHT22;65381;51.254;15.592;2024-01-11T11:42:22;24.20;30.50
76537;DHT22;65381;51.254;15.592;2024-01-11T11:44:51;24.20;30.50
76537;DHT22;65381;51.254;15.592;2024-01-11T11:47:23;24.20;30.40
76537;DHT22;65381;51.254;15.592;2024-01-11T11:50:04;24.20;30.30
76537;DHT22;65381;51.254;15.592;2024-01-11T11:52:34;24.20;30.30
76537;DHT22;65381;51.254;15.592;2024-01-11T11:55:05;24.20;30.40
76537;DHT22;65381;51.254;15.592;2024-01-11T11:57:37;24.20;30.30
76537;DHT22;65381;51.254;15.592;2024-01-11T12:00:05;24.20;30.30
76537;DHT22;65381;51.254;15.592;2024-01-11T12:02:40;24.20;30.30
76537;DHT22;65381;51.254;15.592;2024-01-11T12:05:09;24.20;30.20
76537;DHT22;65381;51.254;15.592;2024-01-11T12:07:37;24.20;30.20
76537;DHT22;65381;51.254;15.592;2024-01-11T12:10:06;24.20;30.20
76537;DHT22;65381;51.254;15.592;2024-01-11T12:12:35;24.20;30.20
76537;DHT22;65381;51.254;15.592;2024-01-11T12:15:04;24.20;30.10
76537;DHT22;65381;51.254;15.592;2024-01-11T12:17:33;24.20;30.10
76537;DHT22;65381;51.254;15.592;2024-01-11T12:20:01;24.20;30.10
76537;DHT22;65381;51.254;15.592;2024-01-11T12:22:29;24.20;30.10
76537;DHT22;65381;51.254;15.592;2024-01-11T12:24:57;24.20;30.00
76537;DHT22;65381;51.254;15.592;2024-01-11T12:27:25;24.20;30.10
76537;DHT22;65381;51.254;15.592;2024-01-11T12:29:53;24.20;30.00
76537;DHT22;65381;51.254;15.592;2024-01-11T12:32:26;24.20;30.00
76537;DHT22;65381;51.254;15.592;2024-01-11T12:34:55;24.20;30.10
76537;DHT22;65381;51.254;15.592;2024-01-11T12:37:23;24.20;30.00
76537;DHT22;65381;51.254;15.592;2024-01-11T12:39:57;24.20;30.10
76537;DHT22;65381;51.254;15.592;2024-01-11T12:42:30;24.20;30.30
76537;DHT22;65381;51.254;15.592;2024-01-11T12:44:58;24.20;30.40
76537;DHT22;65381;51.254;15.592;2024-01-11T12:47:26;24.20;30.40
76537;DHT22;65381;51.254;15.592;2024-01-11T12:49:55;24.20;30.40
76537;DHT22;65381;51.254;15.592;2024-01-11T12:52:22;24.20;30.40
76537;DHT22;65381;51.254;15.592;2024-01-11T12:54:55;24.20;30.40
76537;DHT22;65381;51.254;15.592;2024-01-11T12:57:24;24.20;30.40
76537;DHT22;65381;51.254;15.592;2024-01-11T12:59:52;24.20;30.30
76537;DHT22;65381;51.254;15.592;2024-01-11T13:02:20;24.20;30.30
76537;DHT22;65381;51.254;15.592;2024-01-11T13:04:50;24.20;30.20
76537;DHT22;65381;51.254;15.592;2024-01-11T13:07:19;24.20;30.20
76537;DHT22;65381;51.254;15.592;2024-01-11T13:09:50;24.20;30.20
76537;DHT22;65381;51.254;15.592;2024-01-11T13:12:18;24.20;30.30
76537;DHT22;65381;51.254;15.592;2024-01-11T13:14:48;24.20;30.20
76537;DHT22;65381;51.254;15.592;2024-01-11T13:17:18;24.20;30.20
76537;DHT22;65381;51.254;15.592;2024-01-11T13:19:46;24.20;30.20
76537;DHT22;65381;51.254;15.592;2024-01-11T13:22:14;24.20;30.30
76537;DHT22;65381;51.254;15.592;2024-01-11T13:24:42;24.20;30.30
76537;DHT22;65381;51.254;15.592;2024-01-11T13:27:09;24.20;30.30
76537;DHT22;65381;51.254;15.592;2024-01-11T13:29:37;24.20;30.30
76537;DHT22;65381;51.254;15.592;2024-01-11T13:32:05;24.10;31.30
76537;DHT22;65381;51.254;15.592;2024-01-11T13:34:33;24.00;32.20
76537;DHT22;65381;51.254;15.592;2024-01-11T13:37:01;24.00;32.80
76537;DHT22;65381;51.254;15.592;2024-01-11T13:39:30;24.00;33.00
76537;DHT22;65381;51.254;15.592;2024-01-11T13:41:58;24.00;32.90
76537;DHT22;65381;51.254;15.592;2024-01-11T13:44:26;24.00;32.90
76537;DHT22;65381;51.254;15.592;2024-01-11T13:46:54;24.00;32.80
76537;DHT22;65381;51.254;15.592;2024-01-11T13:49:22;23.90;32.60
76537;DHT22;65381;51.254;15.592;2024-01-11T13:51:52;23.90;32.40
76537;DHT22;65381;51.254;15.592;2024-01-11T13:54:28;23.90;32.20
76537;DHT22;65381;51.254;15.592;2024-01-11T13:56:56;23.90;32.00
76537;DHT22;65381;51.254;15.592;2024-01-11T13:59:24;23.90;31.90
76537;DHT22;65381;51.254;15.592;2024-01-11T14:01:51;23.80;31.70
76537;DHT22;65381;51.254;15.592;2024-01-11T14:04:19;23.80;31.60
76537;DHT22;65381;51.254;15.592;2024-01-11T14:06:50;23.80;31.50
76537;DHT22;65381;51.254;15.592;2024-01-11T14:09:20;23.80;31.30
76537;DHT22;65381;51.254;15.592;2024-01-11T14:11:49;23.80;31.20
76537;DHT22;65381;51.254;15.592;2024-01-11T14:14:17;23.80;31.10
76537;DHT22;65381;51.254;15.592;2024-01-11T14:16:48;23.80;30.90
76537;DHT22;65381;51.254;15.592;2024-01-11T14:19:16;23.70;30.80
76537;DHT22;65381;51.254;15.592;2024-01-11T14:21:44;23.70;30.80
76537;DHT22;65381;51.254;15.592;2024-01-11T14:24:12;23.70;30.70
76537;DHT22;65381;51.254;15.592;2024-01-11T14:26:40;23.60;30.60
76537;DHT22;65381;51.254;15.592;2024-01-11T14:29:09;23.60;30.50
76537;DHT22;65381;51.254;15.592;2024-01-11T14:31:38;23.60;30.40
76537;DHT22;65381;51.254;15.592;2024-01-11T14:34:06;23.60;30.40
76537;DHT22;65381;51.254;15.592;2024-01-11T14:36:35;23.60;30.30
76537;DHT22;65381;51.254;15.592;2024-01-11T14:39:03;23.60;30.20
76537;DHT22;65381;51.254;15.592;2024-01-11T14:41:34;23.60;30.20
76537;DHT22;65381;51.254;15.592;2024-01-11T14:44:03;23.60;30.10
76537;DHT22;65381;51.254;15.592;2024-01-11T14:46:31;23.60;30.00
76537;DHT22;65381;51.254;15.592;2024-01-11T14:48:59;23.60;30.00
76537;DHT22;65381;51.254;15.592;2024-01-11T14:51:28;23.60;29.90
76537;DHT22;65381;51.254;15.592;2024-01-11T14:53:58;23.60;29.80
76537;DHT22;65381;51.254;15.592;2024-01-11T14:56:26;23.60;29.70
76537;DHT22;65381;51.254;15.592;2024-01-11T14:58:54;23.50;29.70
76537;DHT22;65381;51.254;15.592;2024-01-11T15:01:22;23.60;29.70
76537;DHT22;65381;51.254;15.592;2024-01-11T15:03:50;23.60;29.60
76537;DHT22;65381;51.254;15.592;2024-01-11T15:06:17;23.50;29.60
76537;DHT22;65381;51.254;15.592;2024-01-11T15:08:45;23.50;29.50
76537;DHT22;65381;51.254;15.592;2024-01-11T15:11:13;23.50;29.50
76537;DHT22;65381;51.254;15.592;2024-01-11T15:13:41;23.50;29.50
76537;DHT22;65381;51.254;15.592;2024-01-11T15:16:09;23.50;29.40
76537;DHT22;65381;51.254;15.592;2024-01-11T15:18:37;23.50;29.40
76537;DHT22;65381;51.254;15.592;2024-01-11T15:21:05;23.50;29.30
76537;DHT22;65381;51.254;15.592;2024-01-11T15:23:33;23.50;29.30
76537;DHT22;65381;51.254;15.592;2024-01-11T15:26:02;23.50;29.30